Time;durP1;ratioP1;P1;durP2;ratioP2;P2;SDS_P1;SDS_P2;PMS_P1;PMS_P2;Temp;Humidity;BMP_temperature;BMP_pressure;BME280_temperature;BME280_humidity;BME280_pressure;Samples;Min_cycle;Max_cycle;Signal;HPM_P1;HPM_P2
2023/02/11 00:01:28;;;;;;;;;;;;;;;15.23;61.88;102982.69;7401863;19;1949;-37
2023/02/11 00:04:00;;;;;;;;;;;;;;;15.21;61.77;102979.19;7400402;19;2058;-38
2023/02/11 00:06:41;;;;;;;;;;;;;;;15.24;61.50;102987.06;7401030;19;2012;-38
2023/02/11 00:09:11;;;;;;;;;;;;;;;15.27;60.78;102982.50;7403152;19;1104;-38
2023/02/11 00:11:47;;;;;;;;;;;;;;;15.90;59.16;102979.25;7400021;19;2197;-38
2023/02/11 00:14:16;;;;;;;;;;;;;;;16.34;58.20;102970.38;7401271;19;2032;-38
2023/02/11 00:16:49;;;;;;;;;;;;;;;16.96;56.78;102972.16;7401269;19;1907;-38
2023/02/11 00:19:19;;;;;;;;;;;;;;;17.43;55.41;102987.00;7399624;19;1716;-38
2023/02/11 00:21:50;;;;;;;;;;;;;;;17.70;54.60;102972.28;7401047;19;1717;-38
2023/02/11 00:24:18;;;;;;;;;;;;;;;17.87;54.07;102955.47;7400700;19;1909;-38
2023/02/11 00:26:56;;;;;;;;;;;;;;;18.01;54.11;102973.53;7400166;19;2015;-38
2023/02/11 00:29:27;;;;;;;;;;;;;;;18.07;53.88;102967.88;7401079;19;1948;-37
2023/02/11 00:31:55;;;;;;;;;;;;;;;18.03;53.49;102968.97;7402218;19;1598;-38
2023/02/11 00:34:24;;;;;;;;;;;;;;;17.86;54.31;102960.88;7399473;19;1807;-38
2023/02/11 00:36:53;;;;;;;;;;;;;;;17.50;54.95;102964.34;7400229;19;1872;-38
2023/02/11 00:39:22;;;;;;;;;;;;;;;17.28;55.55;102969.81;7400794;19;1728;-38
2023/02/11 00:41:53;;;;;;;;;;;;;;;17.24;55.45;102962.88;7402389;19;2045;-38
2023/02/11 00:44:24;;;;;;;;;;;;;;;17.25;55.59;102948.59;7400256;19;2040;-38
2023/02/11 00:46:55;;;;;;;;;;;;;;;17.16;55.77;102955.22;7400327;19;2023;-38
2023/02/11 00:49:26;;;;;;;;;;;;;;;17.17;55.56;102950.72;7399643;19;2131;-38
2023/02/11 00:51:54;;;;;;;;;;;;;;;17.03;55.64;102938.88;7400090;19;2139;-38
2023/02/11 00:54:28;;;;;;;;;;;;;;;17.06;55.61;102941.41;7400647;19;2097;-38
2023/02/11 00:57:02;;;;;;;;;;;;;;;17.14;55.28;102946.41;7401077;19;2066;-38
2023/02/11 00:59:30;;;;;;;;;;;;;;;17.13;55.38;102950.03;7400681;19;2021;-38
2023/02/11 01:02:03;;;;;;;;;;;;;;;17.17;55.53;102935.56;7399962;19;1979;-38
2023/02/11 01:04:32;;;;;;;;;;;;;;;17.15;55.07;102941.91;7398521;19;1963;-38
2023/02/11 01:07:00;;;;;;;;;;;;;;;17.19;55.05;102938.16;7399164;19;1856;-38
2023/02/11 01:09:29;;;;;;;;;;;;;;;17.19;55.12;102949.75;7400792;19;2035;-38
2023/02/11 01:12:05;;;;;;;;;;;;;;;17.15;55.18;102955.28;7400336;19;1710;-37
2023/02/11 01:14:35;;;;;;;;;;;;;;;17.17;54.77;102940.03;7401465;19;2086;-38
2023/02/11 01:17:05;;;;;;;;;;;;;;;17.22;54.84;102938.03;7400378;19;2053;-37
2023/02/11 01:19:37;;;;;;;;;;;;;;;17.20;55.25;102953.28;7399231;19;1851;-37
2023/02/11 01:22:09;;;;;;;;;;;;;;;17.20;55.13;102945.25;7400631;19;1994;-37
2023/02/11 01:24:40;;;;;;;;;;;;;;;17.10;54.95;102945.66;7399986;19;1982;-37
2023/02/11 01:27:23;;;;;;;;;;;;;;;16.72;56.35;102935.81;7398391;19;2014;-38
2023/02/11 01:29:56;;;;;;;;;;;;;;;16.22;57.47;102943.25;7399391;19;1954;-38
2023/02/11 01:32:25;;;;;;;;;;;;;;;15.84;58.68;102940.34;7399619;19;2168;-38
2023/02/11 01:34:54;;;;;;;;;;;;;;;15.75;58.58;102955.84;7399554;19;2343;-38
2023/02/11 01:37:24;;;;;;;;;;;;;;;15.75;58.18;102962.03;7399520;19;1988;-38
2023/02/11 01:39:53;;;;;;;;;;;;;;;15.69;58.78;102952.44;7399190;19;1947;-37
2023/02/11 01:42:27;;;;;;;;;;;;;;;15.66;59.05;102952.59;7402603;19;1728;-37
2023/02/11 01:44:59;;;;;;;;;;;;;;;15.61;58.89;102949.22;7406695;19;2054;-38
2023/02/11 01:47:30;;;;;;;;;;;;;;;15.58;58.74;102937.78;7404352;19;2078;-38
2023/02/11 01:50:03;;;;;;;;;;;;;;;15.56;58.75;102950.31;7405765;19;2118;-38
2023/02/11 01:52:33;;;;;;;;;;;;;;;15.51;59.00;102954.03;7406216;19;1750;-38
2023/02/11 01:57:48;;;;;;;;;;;;;;;15.43;59.18;102961.47;7407746;19;2093;-38
2023/02/11 02:00:27;;;;;;;;;;;;;;;15.41;59.22;102936.66;7406362;19;2008;-38
2023/02/11 02:03:02;;;;;;;;;;;;;;;15.41;59.32;102954.47;7404948;19;1755;-38
2023/02/11 02:05:34;;;;;;;;;;;;;;;15.37;59.38;102935.03;7406033;19;1921;-38
2023/02/11 02:08:10;;;;;;;;;;;;;;;15.38;59.32;102935.91;7402062;19;1891;-38
2023/02/11 02:10:55;;;;;;;;;;;;;;;15.31;59.40;102944.13;7405133;19;2163;-38
2023/02/11 02:13:31;;;;;;;;;;;;;;;15.29;59.56;102947.78;7405687;19;2087;-38
2023/02/11 02:16:04;;;;;;;;;;;;;;;15.29;59.19;102959.31;7405309;19;1650;-38
2023/02/11 02:18:46;;;;;;;;;;;;;;;15.30;59.37;102960.22;7404612;19;1686;-38
2023/02/11 02:21:36;;;;;;;;;;;;;;;15.27;59.34;102954.97;7404060;19;2086;-38
2023/02/11 02:24:32;;;;;;;;;;;;;;;15.23;59.25;102956.03;7404804;19;1893;-38
2023/02/11 02:27:19;;;;;;;;;;;;;;;15.21;59.74;102957.88;7404115;19;2137;-38
2023/02/11 02:29:56;;;;;;;;;;;;;;;15.16;59.52;102967.81;7405268;19;2100;-38
2023/02/11 02:32:40;;;;;;;;;;;;;;;15.15;59.73;102958.09;7405150;19;1775;-38
2023/02/11 02:35:24;;;;;;;;;;;;;;;15.10;59.59;102958.28;7405231;19;2030;-38
2023/02/11 02:38:00;;;;;;;;;;;;;;;15.08;59.28;102947.69;7405519;19;2130;-38
2023/02/11 02:40:35;;;;;;;;;;;;;;;15.05;59.43;102947.78;7405967;19;2013;-38
2023/02/11 02:43:04;;;;;;;;;;;;;;;15.03;59.32;102954.97;7406046;19;1089;-37
2023/02/11 02:45:41;;;;;;;;;;;;;;;15.01;59.73;102938.16;7404072;19;2089;-38
2023/02/11 02:48:25;;;;;;;;;;;;;;;15.01;60.17;102948.81;7402790;19;2165;-38
2023/02/11 02:51:02;;;;;;;;;;;;;;;15.63;57.83;102946.50;7405004;19;1791;-37
2023/02/11 02:53:40;;;;;;;;;;;;;;;16.26;56.25;102946.66;7401857;19;2274;-38
2023/02/11 02:56:15;;;;;;;;;;;;;;;16.61;55.92;102944.28;7404888;19;2067;-38
2023/02/11 02:58:54;;;;;;;;;;;;;;;17.29;54.07;102929.66;7404725;19;2030;-38
2023/02/11 03:01:29;;;;;;;;;;;;;;;17.77;52.58;102918.50;7403353;19;1962;-38
2023/02/11 03:04:06;;;;;;;;;;;;;;;18.19;51.68;102918.19;7403360;19;1868;-38
2023/02/11 03:06:45;;;;;;;;;;;;;;;18.45;51.29;102916.00;7402413;19;2017;-38
2023/02/11 03:09:16;;;;;;;;;;;;;;;18.73;50.35;102896.66;7404893;19;2034;-38
2023/02/11 03:11:49;;;;;;;;;;;;;;;18.92;50.20;102918.03;7403825;19;1781;-38
2023/02/11 03:14:19;;;;;;;;;;;;;;;19.00;50.03;102907.75;7404152;19;2273;-38
2023/02/11 03:16:52;;;;;;;;;;;;;;;19.10;49.65;102901.88;7404547;19;1966;-38
2023/02/11 03:19:28;;;;;;;;;;;;;;;19.35;49.55;102896.88;7403733;19;1762;-38
2023/02/11 03:22:04;;;;;;;;;;;;;;;19.45;49.20;102905.28;7404331;19;2038;-38
2023/02/11 03:24:47;;;;;;;;;;;;;;;19.55;48.92;102894.88;7403929;19;3102;-38
2023/02/11 03:27:20;;;;;;;;;;;;;;;19.44;49.05;102893.69;7403392;19;1905;-38
2023/02/11 03:29:56;;;;;;;;;;;;;;;19.44;49.41;102893.69;7403549;19;2143;-38
2023/02/11 03:32:28;;;;;;;;;;;;;;;19.50;49.39;102899.63;7403321;19;2148;-38
2023/02/11 03:35:01;;;;;;;;;;;;;;;19.50;48.96;102907.69;7402891;19;2163;-37
2023/02/11 03:37:38;;;;;;;;;;;;;;;19.51;49.22;102896.88;7403598;19;1865;-38
2023/02/11 03:40:21;;;;;;;;;;;;;;;19.61;49.03;102900.75;7403949;19;2025;-38
2023/02/11 03:42:52;;;;;;;;;;;;;;;19.62;48.85;102882.88;7404356;19;1965;-38
2023/02/11 03:45:27;;;;;;;;;;;;;;;19.62;48.70;102890.91;7402821;19;2112;-38
2023/02/11 03:47:58;;;;;;;;;;;;;;;19.65;49.00;102890.72;7401321;19;1853;-38
2023/02/11 03:50:31;;;;;;;;;;;;;;;19.71;49.09;102892.19;7400425;19;1839;-38
2023/02/11 03:53:05;;;;;;;;;;;;;;;19.62;48.88;102877.50;7401624;19;2059;-38
2023/02/11 03:55:36;;;;;;;;;;;;;;;19.64;49.07;102881.81;7402490;19;1787;-38
2023/02/11 03:58:05;;;;;;;;;;;;;;;19.62;49.23;102875.66;7402789;19;1840;-38
2023/02/11 04:00:33;;;;;;;;;;;;;;;19.47;49.38;102877.38;7403387;19;1717;-38
2023/02/11 04:03:05;;;;;;;;;;;;;;;18.55;51.57;102877.06;7402948;19;2044;-38
2023/02/11 04:05:33;;;;;;;;;;;;;;;17.83;52.80;102889.66;7400481;19;1767;-38
2023/02/11 04:08:08;;;;;;;;;;;;;;;17.73;53.10;102880.31;7402706;19;1852;-38
2023/02/11 04:10:39;;;;;;;;;;;;;;;18.33;51.85;102881.81;7401192;19;2088;-38
2023/02/11 04:13:10;;;;;;;;;;;;;;;18.70;50.56;102864.63;7401561;19;2340;-38
2023/02/11 04:15:39;;;;;;;;;;;;;;;18.60;50.81;102871.44;7401591;19;2054;-38
2023/02/11 04:18:13;;;;;;;;;;;;;;;18.71;51.11;102879.78;7402403;19;2136;-37
2023/02/11 04:20:46;;;;;;;;;;;;;;;18.73;51.08;102866.31;7401476;19;1987;-38
2023/02/11 04:23:20;;;;;;;;;;;;;;;18.73;50.50;102863.63;7401503;19;2035;-37
2023/02/11 04:25:48;;;;;;;;;;;;;;;18.75;50.74;102870.63;7401299;19;1644;-38
2023/02/11 04:28:21;;;;;;;;;;;;;;;18.58;51.26;102874.22;7400548;19;1835;-38
2023/02/11 04:30:52;;;;;;;;;;;;;;;18.38;51.16;102866.34;7401388;19;1868;-38
2023/02/11 04:33:21;;;;;;;;;;;;;;;18.23;51.46;102868.03;7401687;19;1838;-38
2023/02/11 04:35:50;;;;;;;;;;;;;;;18.09;52.26;102869.59;7401110;19;1758;-38
2023/02/11 04:38:22;;;;;;;;;;;;;;;18.14;51.93;102880.06;7401593;19;2035;-38
2023/02/11 04:40:55;;;;;;;;;;;;;;;18.32;51.63;102878.25;7401968;19;2332;-38
2023/02/11 04:43:29;;;;;;;;;;;;;;;18.64;50.64;102868.53;7402115;19;1665;-38
2023/02/11 04:45:59;;;;;;;;;;;;;;;18.74;50.29;102886.78;7401035;19;2165;-38
2023/02/11 04:48:28;;;;;;;;;;;;;;;18.62;50.62;102875.78;7399274;19;2140;-38
2023/02/11 04:51:04;;;;;;;;;;;;;;;18.63;50.74;102871.28;7400768;19;2033;-38
2023/02/11 04:53:39;;;;;;;;;;;;;;;18.58;50.77;102858.16;7401910;19;1998;-37
2023/02/11 04:56:08;;;;;;;;;;;;;;;18.65;50.64;102864.91;7400723;19;1800;-38
2023/02/11 04:58:36;;;;;;;;;;;;;;;18.68;50.48;102863.84;7400527;19;2030;-38
2023/02/11 05:01:11;;;;;;;;;;;;;;;18.69;50.59;102862.94;7400361;19;1630;-38
2023/02/11 05:03:40;;;;;;;;;;;;;;;18.63;50.60;102844.50;7398618;19;2042;-38
2023/02/11 05:06:09;;;;;;;;;;;;;;;18.55;51.23;102858.31;7398809;19;2027;-38
2023/02/11 05:08:41;;;;;;;;;;;;;;;18.37;51.63;102859.28;7400576;19;1840;-38
2023/02/11 05:11:09;;;;;;;;;;;;;;;18.21;52.55;102868.09;7400305;19;2154;-38
2023/02/11 05:13:38;;;;;;;;;;;;;;;18.06;53.06;102880.47;7399461;19;2321;-37
2023/02/11 05:16:10;;;;;;;;;;;;;;;17.84;53.57;102861.06;6373615;19;10000695;-38
2023/02/11 05:18:39;;;;;;;;;;;;;;;18.20;52.81;102870.84;7394538;19;2269;-38
2023/02/11 05:21:11;;;;;;;;;;;;;;;18.58;51.68;102874.22;7399033;19;1632;-38
2023/02/11 05:23:42;;;;;;;;;;;;;;;18.83;50.96;102870.25;7401163;19;1883;-38
2023/02/11 05:26:11;;;;;;;;;;;;;;;18.78;51.19;102874.94;7402204;19;1840;-38
2023/02/11 05:28:42;;;;;;;;;;;;;;;18.88;50.95;102881.59;7398686;19;2052;-38
2023/02/11 05:31:13;;;;;;;;;;;;;;;18.93;50.85;102874.16;7399400;19;1824;-38
2023/02/11 05:33:42;;;;;;;;;;;;;;;18.92;50.95;102877.81;7401412;19;1709;-38
2023/02/11 05:36:12;;;;;;;;;;;;;;;18.88;50.71;102876.25;7398215;19;1742;-38
2023/02/11 05:38:43;;;;;;;;;;;;;;;18.90;50.58;102885.06;7401684;19;1722;-38
2023/02/11 05:41:15;;;;;;;;;;;;;;;18.90;51.06;102874.34;7397598;19;2123;-38
2023/02/11 05:43:46;;;;;;;;;;;;;;;18.93;51.23;102895.59;7405812;19;1784;-38
2023/02/11 05:46:16;;;;;;;;;;;;;;;18.97;50.98;102894.50;7402049;19;1796;-38
2023/02/11 05:48:46;;;;;;;;;;;;;;;19.01;51.11;102890.69;7403766;19;1848;-38
2023/02/11 05:51:18;;;;;;;;;;;;;;;18.72;51.79;102900.28;7401708;19;2042;-38
2023/02/11 05:53:58;;;;;;;;;;;;;;;17.94;53.93;102909.66;7404507;19;1643;-38
2023/02/11 05:56:28;;;;;;;;;;;;;;;17.35;55.76;102912.47;7406262;19;1853;-38
2023/02/11 05:59:01;;;;;;;;;;;;;;;17.05;55.56;102917.41;7404148;19;1840;-38
2023/02/11 06:01:30;;;;;;;;;;;;;;;16.97;56.50;102911.53;7404087;19;1890;-37
2023/02/11 06:04:00;;;;;;;;;;;;;;;17.47;55.57;102917.22;7404070;19;1988;-37
2023/02/11 06:06:30;;;;;;;;;;;;;;;17.89;54.35;102916.09;7404607;19;1798;-37
2023/02/11 06:09:07;;;;;;;;;;;;;;;18.61;52.70;102926.78;7404007;19;1883;-37
2023/02/11 06:11:43;;;;;;;;;;;;;;;18.95;51.52;102923.19;7401933;19;1879;-38
2023/02/11 06:14:22;;;;;;;;;;;;;;;19.12;51.65;102905.31;7402696;19;1638;-38
2023/02/11 06:16:51;;;;;;;;;;;;;;;19.15;51.65;102910.53;7405165;19;1660;-37
2023/02/11 06:19:24;;;;;;;;;;;;;;;19.20;51.12;102933.47;7404666;19;2123;-38
2023/02/11 06:21:57;;;;;;;;;;;;;;;19.21;51.44;102926.28;7402584;19;1973;-38
2023/02/11 06:24:30;;;;;;;;;;;;;;;18.99;51.66;102919.41;7403904;19;1772;-38
2023/02/11 06:26:58;;;;;;;;;;;;;;;18.67;52.34;102937.19;7404207;19;1792;-38
2023/02/11 06:29:30;;;;;;;;;;;;;;;18.50;52.67;102916.59;7400457;19;1879;-38
2023/02/11 06:31:59;;;;;;;;;;;;;;;18.65;52.60;102923.84;7401555;19;1838;-38
2023/02/11 06:34:30;;;;;;;;;;;;;;;18.98;51.91;102930.22;7403708;19;1932;-38
2023/02/11 06:37:01;;;;;;;;;;;;;;;19.11;51.57;102919.69;7401609;19;1730;-38
2023/02/11 06:39:36;;;;;;;;;;;;;;;19.21;51.36;102918.25;7401961;19;1879;-38
2023/02/11 06:42:11;;;;;;;;;;;;;;;19.45;50.94;102902.59;7400653;19;2038;-38
2023/02/11 06:44:39;;;;;;;;;;;;;;;19.57;50.93;102906.41;7403092;19;1671;-38
2023/02/11 06:47:08;;;;;;;;;;;;;;;19.47;50.88;102909.59;7402253;19;1697;-38
2023/02/11 06:49:39;;;;;;;;;;;;;;;19.32;51.54;102901.53;7399814;19;1862;-38
2023/02/11 06:52:07;;;;;;;;;;;;;;;19.00;52.30;102905.06;7401727;19;1964;-38
2023/02/11 06:54:40;;;;;;;;;;;;;;;18.86;52.17;102899.56;7400962;19;1625;-38
2023/02/11 06:57:10;;;;;;;;;;;;;;;18.91;52.15;102902.88;7397804;19;1909;-38
2023/02/11 06:59:43;;;;;;;;;;;;;;;19.13;51.99;102901.72;7402584;19;1774;-38
2023/02/11 07:02:12;;;;;;;;;;;;;;;19.39;51.59;102903.78;7401958;19;1740;-38
2023/02/11 07:04:50;;;;;;;;;;;;;;;19.60;51.28;102898.19;7401060;19;1703;-38
2023/02/11 07:07:21;;;;;;;;;;;;;;;19.72;50.89;102900.19;7401097;19;1796;-38
2023/02/11 07:09:54;;;;;;;;;;;;;;;19.81;50.97;102913.06;7399019;19;1943;-38
2023/02/11 07:12:25;;;;;;;;;;;;;;;19.61;51.29;102898.06;7401421;19;1632;-39
2023/02/11 07:14:54;;;;;;;;;;;;;;;19.36;52.12;102897.72;7402697;19;1717;-39
2023/02/11 07:17:24;;;;;;;;;;;;;;;19.18;51.95;102889.78;7403330;19;1716;-39
2023/02/11 07:19:55;;;;;;;;;;;;;;;18.94;52.98;102907.19;7402556;19;1797;-39
2023/02/11 07:22:28;;;;;;;;;;;;;;;18.79;53.16;102885.63;7400941;19;1790;-39
2023/02/11 07:25:03;;;;;;;;;;;;;;;19.05;52.82;102894.94;7401340;19;1660;-39
2023/02/11 07:27:35;;;;;;;;;;;;;;;19.33;52.23;102904.13;7402770;19;1968;-39
2023/02/11 07:30:08;;;;;;;;;;;;;;;19.55;51.93;102893.06;7403630;19;1635;-39
2023/02/11 07:32:36;;;;;;;;;;;;;;;19.65;52.01;102893.41;7401662;19;1785;-39
2023/02/11 07:35:08;;;;;;;;;;;;;;;19.50;52.11;102905.00;7402106;19;1485;-39
2023/02/11 07:37:36;;;;;;;;;;;;;;;19.20;52.96;102897.72;7401339;19;1845;-39
2023/02/11 07:40:10;;;;;;;;;;;;;;;19.00;53.06;102878.25;7398624;19;1876;-39
2023/02/11 07:42:42;;;;;;;;;;;;;;;19.18;53.31;102889.78;7400814;19;1821;-37
2023/02/11 07:45:16;;;;;;;;;;;;;;;19.34;52.82;102888.91;7401807;19;1881;-36
2023/02/11 07:47:47;;;;;;;;;;;;;;;19.43;51.11;102869.63;7401067;19;1998;-37
2023/02/11 07:50:16;;;;;;;;;;;;;;;19.65;50.02;102882.66;7401082;19;1667;-36
2023/02/11 07:52:45;;;;;;;;;;;;;;;19.74;49.79;102882.19;7400797;19;1773;-36
2023/02/11 07:55:17;;;;;;;;;;;;;;;19.70;49.44;102879.75;7400109;19;1954;-36
2023/02/11 07:57:48;;;;;;;;;;;;;;;19.50;49.51;102848.66;7400535;19;1836;-38
2023/02/11 08:00:19;;;;;;;;;;;;;;;19.31;49.75;102855.06;7399821;19;2303;-38
2023/02/11 08:02:47;;;;;;;;;;;;;;;19.34;50.30;102852.22;7399209;19;1839;-39
2023/02/11 08:05:21;;;;;;;;;;;;;;;19.53;49.74;102864.59;7399887;19;2126;-38
2023/02/11 08:07:56;;;;;;;;;;;;;;;19.78;49.52;102851.50;7400865;19;1845;-39
2023/02/11 08:10:30;;;;;;;;;;;;;;;19.92;48.95;102844.47;7400612;19;1659;-39
2023/02/11 08:12:58;;;;;;;;;;;;;;;19.99;49.13;102843.13;7399165;19;1862;-39
2023/02/11 08:15:27;;;;;;;;;;;;;;;19.79;49.79;102837.13;7401089;19;1744;-38
2023/02/11 08:17:55;;;;;;;;;;;;;;;19.68;49.79;102835.03;7400658;19;1899;-39
2023/02/11 08:20:26;;;;;;;;;;;;;;;19.63;50.25;102844.31;7400864;19;1766;-39
2023/02/11 08:22:56;;;;;;;;;;;;;;;19.62;50.40;102846.16;7400076;19;1730;-39
2023/02/11 08:25:25;;;;;;;;;;;;;;;19.63;50.29;102823.69;7400772;19;1868;-39
2023/02/11 08:27:58;;;;;;;;;;;;;;;19.68;50.54;102840.41;7331227;19;12600;-38
2023/02/11 08:30:34;;;;;;;;;;;;;;;19.56;50.77;102837.59;7389612;19;1974;-39
2023/02/11 08:33:03;;;;;;;;;;;;;;;19.61;50.48;102833.66;7395193;19;1851;-39
2023/02/11 08:35:34;;;;;;;;;;;;;;;19.45;50.60;102841.72;7398695;19;1863;-39
2023/02/11 08:38:05;;;;;;;;;;;;;;;19.31;50.62;102836.28;7397378;19;1895;-39
2023/02/11 08:40:36;;;;;;;;;;;;;;;19.42;50.62;102827.66;7395385;19;1968;-39
2023/02/11 08:43:07;;;;;;;;;;;;;;;19.64;49.87;102816.53;7331820;19;12754;-39
2023/02/11 08:45:41;;;;;;;;;;;;;;;19.83;50.12;102822.56;7397129;19;2557;-39
2023/02/11 08:48:10;;;;;;;;;;;;;;;19.96;49.92;102824.53;7397907;19;1940;-39
2023/02/11 08:50:42;;;;;;;;;;;;;;;19.93;50.06;102827.41;7398056;19;2019;-39
2023/02/11 08:53:13;;;;;;;;;;;;;;;19.74;50.24;102824.94;7397360;19;2565;-39
2023/02/11 08:55:41;;;;;;;;;;;;;;;19.55;50.44;102847.44;7397252;19;2235;-39
2023/02/11 08:58:13;;;;;;;;;;;;;;;19.60;50.85;102848.06;7397558;19;1787;-39
2023/02/11 09:00:44;;;;;;;;;;;;;;;19.43;51.18;102830.22;7396200;19;2305;-39
2023/02/11 09:03:21;;;;;;;;;;;;;;;19.05;55.25;102832.41;7397153;19;1686;-39
2023/02/11 09:05:52;;;;;;;;;;;;;;;18.69;54.30;102828.94;7397520;19;1745;-39
2023/02/11 09:08:25;;;;;;;;;;;;;;;18.67;54.76;102838.88;7397438;19;1929;-39
2023/02/11 09:10:53;;;;;;;;;;;;;;;19.31;52.01;102835.44;7397899;19;2244;-39
2023/02/11 09:13:26;;;;;;;;;;;;;;;19.83;50.53;102821.69;7396684;19;2034;-39
2023/02/11 09:15:56;;;;;;;;;;;;;;;20.03;50.22;102809.75;7396947;19;1726;-39
2023/02/11 09:18:34;;;;;;;;;;;;;;;19.93;50.80;102805.91;7397874;19;1515;-39
2023/02/11 09:21:07;;;;;;;;;;;;;;;19.76;50.84;102805.09;7398097;19;1659;-39
2023/02/11 09:23:42;;;;;;;;;;;;;;;19.60;51.18;102821.22;7396814;19;1825;-39
2023/02/11 09:26:13;;;;;;;;;;;;;;;19.50;51.51;102819.13;7397239;19;2406;-39
2023/02/11 09:28:47;;;;;;;;;;;;;;;19.48;51.25;102798.63;7395427;19;1968;-39
2023/02/11 09:31:20;;;;;;;;;;;;;;;19.67;51.40;102816.34;7394599;19;2261;-39
2023/02/11 09:33:49;;;;;;;;;;;;;;;19.66;51.26;102807.44;7395972;19;1873;-39
2023/02/11 09:36:19;;;;;;;;;;;;;;;19.68;51.12;102791.25;7395498;19;1873;-39
2023/02/11 09:38:47;;;;;;;;;;;;;;;19.71;51.41;102766.91;7395950;19;1832;-39
2023/02/11 09:41:23;;;;;;;;;;;;;;;19.78;50.97;102792.44;7396221;19;1700;-39
2023/02/11 09:43:55;;;;;;;;;;;;;;;19.79;51.11;102782.56;7396559;19;1944;-39
2023/02/11 09:46:25;;;;;;;;;;;;;;;19.80;51.27;102763.69;7396651;19;2091;-39
2023/02/11 09:48:55;;;;;;;;;;;;;;;19.83;51.36;102774.22;7395792;19;1834;-39
2023/02/11 09:51:28;;;;;;;;;;;;;;;19.86;51.29;102766.00;7395467;19;1639;-39
2023/02/11 09:53:59;;;;;;;;;;;;;;;19.95;51.24;102761.03;7395440;19;2454;-39
2023/02/11 09:56:29;;;;;;;;;;;;;;;19.93;51.08;102755.75;7394851;19;1746;-39
2023/02/11 09:59:01;;;;;;;;;;;;;;;19.99;51.29;102757.19;7395235;19;2208;-39
2023/02/11 10:01:32;;;;;;;;;;;;;;;20.16;50.91;102753.50;7394478;19;2426;-39
2023/02/11 10:04:06;;;;;;;;;;;;;;;20.19;50.75;102748.81;7397842;19;2119;-39
2023/02/11 10:06:40;;;;;;;;;;;;;;;20.12;50.82;102746.59;7401607;19;1761;-39
2023/02/11 10:09:19;;;;;;;;;;;;;;;20.03;51.23;102734.56;7402426;19;1855;-39
2023/02/11 10:11:55;;;;;;;;;;;;;;;19.87;51.53;102737.31;7404179;19;1944;-39
2023/02/11 10:14:34;;;;;;;;;;;;;;;19.90;51.62;102725.56;7403962;19;1924;-39
2023/02/11 10:17:10;;;;;;;;;;;;;;;19.80;51.28;102720.75;7403279;19;1904;-40
2023/02/11 10:19:47;;;;;;;;;;;;;;;19.69;49.92;102715.13;7403674;19;1799;-38
2023/02/11 10:22:20;;;;;;;;;;;;;;;19.69;50.30;102696.31;7404390;19;1664;-38
2023/02/11 10:24:57;;;;;;;;;;;;;;;19.81;50.24;102692.91;7406142;19;1700;-38
2023/02/11 10:27:29;;;;;;;;;;;;;;;19.82;50.18;102691.97;7406338;19;2132;-38
2023/02/11 10:30:03;;;;;;;;;;;;;;;19.86;50.32;102692.66;7404589;19;2155;-38
2023/02/11 10:32:37;;;;;;;;;;;;;;;19.91;50.35;102703.09;7404389;19;2096;-38
2023/02/11 10:35:13;;;;;;;;;;;;;;;19.88;50.42;102695.25;7404441;19;2017;-39
2023/02/11 10:37:42;;;;;;;;;;;;;;;19.75;50.04;102679.88;7402675;19;1771;-38
2023/02/11 10:40:16;;;;;;;;;;;;;;;19.41;50.80;102679.19;7402554;19;2236;-38
2023/02/11 10:42:58;;;;;;;;;;;;;;;18.80;52.01;102669.38;7404684;19;1755;-38
2023/02/11 10:45:32;;;;;;;;;;;;;;;18.49;53.38;102677.31;7400889;19;2101;-38
2023/02/11 10:48:02;;;;;;;;;;;;;;;18.34;54.62;102669.25;7402752;19;1950;-38
2023/02/11 10:50:35;;;;;;;;;;;;;;;18.15;54.85;102662.25;7400675;19;1915;-38
2023/02/11 10:53:18;;;;;;;;;;;;;;;18.06;55.51;102658.25;7403928;19;2069;-38
2023/02/11 10:55:54;;;;;;;;;;;;;;;17.97;55.93;102672.13;7402894;19;2413;-38
2023/02/11 10:58:26;;;;;;;;;;;;;;;17.99;56.16;102661.34;7403047;19;2144;-39
2023/02/11 11:01:00;;;;;;;;;;;;;;;17.96;57.10;102653.47;7403787;19;2001;-38
2023/02/11 11:03:30;;;;;;;;;;;;;;;17.94;58.12;102647.34;7402887;19;1544;-38
2023/02/11 11:06:00;;;;;;;;;;;;;;;17.87;57.87;102645.00;7399722;19;1869;-38
2023/02/11 11:08:39;;;;;;;;;;;;;;;17.92;57.14;102643.88;7397283;19;2485;-39
2023/02/11 11:11:10;;;;;;;;;;;;;;;17.80;58.08;102632.84;7395128;19;1988;-39
2023/02/11 11:13:39;;;;;;;;;;;;;;;17.74;58.30;102640.34;7398706;19;2077;-38
2023/02/11 11:16:22;;;;;;;;;;;;;;;17.68;58.37;102633.50;7398521;19;1944;-38
2023/02/11 11:18:51;;;;;;;;;;;;;;;17.69;58.50;102629.91;7400689;19;2075;-38
2023/02/11 11:21:21;;;;;;;;;;;;;;;17.70;58.68;102618.22;6366407;19;10000758;-38
2023/02/11 11:23:52;;;;;;;;;;;;;;;17.67;58.63;102629.97;7393437;19;1656;-38
2023/02/11 11:26:20;;;;;;;;;;;;;;;17.65;58.66;102639.03;7391059;19;1625;-39
2023/02/11 11:28:57;;;;;;;;;;;;;;;17.56;58.67;102624.31;7395920;19;1776;-38
2023/02/11 11:31:30;;;;;;;;;;;;;;;17.50;58.83;102614.78;7389399;19;1834;-39
2023/02/11 11:34:02;;;;;;;;;;;;;;;17.48;59.68;102614.00;7393631;19;1738;-44
2023/02/11 11:36:38;;;;;;;;;;;;;;;17.44;59.53;102607.09;7390104;19;1944;-38
2023/02/11 11:39:22;;;;;;;;;;;;;;;17.37;59.39;102594.13;7386494;19;1805;-39
2023/02/11 11:41:55;;;;;;;;;;;;;;;17.32;59.71;102597.03;7390423;19;1875;-38
2023/02/11 11:44:26;;;;;;;;;;;;;;;17.29;59.54;102578.50;7390632;19;2071;-39
2023/02/11 11:47:09;;;;;;;;;;;;;;;17.31;60.27;102581.97;7395683;19;1803;-38
2023/02/11 11:49:39;;;;;;;;;;;;;;;17.27;60.74;102591.09;7392141;19;2010;-39
2023/02/11 11:52:19;;;;;;;;;;;;;;;17.34;63.38;102568.41;7392250;19;1797;-39
2023/02/11 11:54:54;;;;;;;;;;;;;;;17.34;65.68;102576.44;7391436;19;1965;-39
2023/02/11 11:57:28;;;;;;;;;;;;;;;17.39;63.28;102561.03;7392653;19;1751;-39
2023/02/11 12:00:04;;;;;;;;;;;;;;;17.43;62.64;102546.53;7391840;19;1904;-39
2023/02/11 12:02:44;;;;;;;;;;;;;;;17.51;65.10;102538.13;7390836;19;2074;-39
2023/02/11 12:05:17;;;;;;;;;;;;;;;17.50;64.56;102541.72;7391763;19;1783;-39
2023/02/11 12:07:56;;;;;;;;;;;;;;;17.52;63.81;102530.94;7392906;19;1759;-39
2023/02/11 12:10:36;;;;;;;;;;;;;;;18.19;61.61;102524.56;7391030;19;1939;-39
2023/02/11 12:13:15;;;;;;;;;;;;;;;18.13;61.44;102519.56;7393756;19;1882;-39
2023/02/11 12:15:50;;;;;;;;;;;;;;;17.86;65.43;102500.56;7396652;19;1612;-39
2023/02/11 12:18:36;;;;;;;;;;;;;;;17.76;65.26;102512.69;7393644;19;1599;-38
2023/02/11 12:21:18;;;;;;;;;;;;;;;18.08;64.24;102495.72;7392379;19;2793;-38
2023/02/11 12:23:52;;;;;;;;;;;;;;;18.04;65.25;102494.16;7395933;19;1808;-39
2023/02/11 12:26:24;;;;;;;;;;;;;;;17.79;66.72;102496.47;7395569;19;1992;-39
2023/02/11 12:29:05;;;;;;;;;;;;;;;17.60;66.87;102488.59;7395934;19;2273;-39
2023/02/11 12:31:49;;;;;;;;;;;;;;;17.53;65.00;102476.47;7395095;19;1848;-39
2023/02/11 12:34:34;;;;;;;;;;;;;;;17.55;64.13;102467.44;7397463;19;1837;-39
2023/02/11 12:37:06;;;;;;;;;;;;;;;17.57;64.14;102472.72;7397194;19;1794;-39
2023/02/11 12:39:38;;;;;;;;;;;;;;;17.54;65.19;102467.53;7401522;19;1706;-38
2023/02/11 12:45:16;;;;;;;;;;;;;;;17.41;65.12;102475.38;7400805;19;1868;-38
2023/02/11 12:47:51;;;;;;;;;;;;;;;17.56;65.30;102462.97;7400032;19;1907;-38
2023/02/11 12:50:31;;;;;;;;;;;;;;;17.59;65.18;102460.97;7399203;19;2056;-39
2023/02/11 12:53:08;;;;;;;;;;;;;;;17.45;65.18;102452.84;7399110;19;1716;-38
2023/02/11 12:55:39;;;;;;;;;;;;;;;17.34;66.45;102456.09;7400122;19;1777;-38
2023/02/11 12:58:18;;;;;;;;;;;;;;;17.22;65.76;102459.44;7400414;19;1625;-38
2023/02/11 13:00:51;;;;;;;;;;;;;;;17.21;66.10;102455.03;7400116;19;1754;-38
2023/02/11 13:03:25;;;;;;;;;;;;;;;17.22;65.81;102443.41;7398249;19;1703;-39
2023/02/11 13:06:03;;;;;;;;;;;;;;;17.30;65.46;102449.19;7400414;19;1905;-39
2023/02/11 13:08:33;;;;;;;;;;;;;;;17.27;65.67;102452.06;7400711;19;1607;-39
2023/02/11 13:11:03;;;;;;;;;;;;;;;17.27;65.71;102434.19;7398063;19;2404;-38
2023/02/11 13:13:35;;;;;;;;;;;;;;;17.21;65.37;102434.53;7399878;19;1794;-39
2023/02/11 13:16:07;;;;;;;;;;;;;;;17.23;65.87;102437.09;7397633;19;1963;-39
2023/02/11 13:18:44;;;;;;;;;;;;;;;17.25;65.48;102421.88;7396136;19;1747;-38
2023/02/11 13:21:27;;;;;;;;;;;;;;;17.24;64.41;102423.66;7399042;19;2088;-38